Weather at Dresden Airport

Public forecast

Using degrees Celsius for public forecast. Weather courtesy of forecast.io.

Current aviation weather report (METAR) for Dresden Airport

Retrieved 2021/01/27 21:20 UTC (28 minutes ago):

EDDC 272120Z 18008KT 9999 BKN025 M00/M03 Q1010 R04/19//95

Aviation forecast (TAF) for Dresden Airport

Retrieved 2021/01/27 18:27 UTC (3 hours ago):

TAF EDDC 271700Z 2718/2818 18007KT 9999 BKN030 TEMPO 2720/2723 2500 -SN BKN008 PROB30 TEMPO 2720/2723 -FZDZ BECMG 2723/2802 24008KT TEMPO 2723/2808 3500 -DZRA BKN008 BECMG 2812/2814 VRB03KT TEMPO 2814/2818 3500 -RASN BKN009